createdAt,value
2018-04-14T00:01:15.964Z,8.35
2018-04-14T00:03:43.544Z,8.28
2018-04-14T00:06:11.024Z,8.21
2018-04-14T00:08:38.485Z,8.28
2018-04-14T00:11:05.970Z,8.25
2018-04-14T00:13:34.408Z,8.18
2018-04-14T00:16:01.969Z,8.19
2018-04-14T00:18:29.443Z,8.30
2018-04-14T00:20:56.943Z,8.13
2018-04-14T00:23:25.500Z,8.33
2018-04-14T00:25:53.008Z,8.46
2018-04-14T00:28:20.467Z,8.53
2018-04-14T00:30:48.013Z,8.51
2018-04-14T00:33:15.496Z,8.46
2018-04-14T00:35:42.991Z,8.37
2018-04-14T00:38:10.449Z,8.55
2018-04-14T00:40:37.927Z,8.19
2018-04-14T00:43:06.285Z,8.39
2018-04-14T00:45:33.771Z,8.30
2018-04-14T00:48:01.225Z,8.07
2018-04-14T00:50:28.787Z,8.09
2018-04-14T00:52:56.348Z,8.42
2018-04-14T00:55:23.811Z,8.60
2018-04-14T00:57:51.307Z,8.55
2018-04-14T01:00:18.823Z,8.57
2018-04-14T01:02:46.322Z,8.38
2018-04-14T01:05:13.844Z,8.13
2018-04-14T01:07:41.398Z,8.15
2018-04-14T01:10:08.843Z,8.11
2018-04-14T01:12:36.469Z,8.17
2018-04-14T01:15:03.971Z,7.96
2018-04-14T01:17:32.451Z,7.79
2018-04-14T01:19:59.907Z,7.78
2018-04-14T01:22:27.403Z,7.99
2018-04-14T01:24:54.984Z,8.06
2018-04-14T01:27:22.472Z,7.83
2018-04-14T01:29:49.938Z,7.95
2018-04-14T01:32:17.502Z,7.87
2018-04-14T01:34:44.995Z,8.03
2018-04-14T01:37:12.451Z,7.98
2018-04-14T01:39:41.004Z,8.05
2018-04-14T01:42:09.368Z,8.52
2018-04-14T01:44:36.868Z,8.68
2018-04-14T01:47:04.396Z,8.81
2018-04-14T01:49:31.947Z,8.87
2018-04-14T01:51:59.405Z,8.95
2018-04-14T01:54:26.898Z,8.97
2018-04-14T01:56:54.347Z,8.86
2018-04-14T01:59:22.800Z,8.72
2018-04-14T02:01:50.255Z,8.73
2018-04-14T02:04:17.815Z,8.67
2018-04-14T02:06:45.269Z,8.73
2018-04-14T02:09:12.746Z,8.67
2018-04-14T02:11:40.207Z,8.64
2018-04-14T02:14:07.659Z,8.62
2018-04-14T02:16:35.136Z,8.64
2018-04-14T02:19:02.667Z,8.75
2018-04-14T02:21:30.146Z,8.76
2018-04-14T02:23:57.604Z,8.67
2018-04-14T02:26:25.084Z,8.57
2018-04-14T02:28:54.498Z,8.41
2018-04-14T02:31:21.972Z,8.60
2018-04-14T02:33:49.444Z,8.76
2018-04-14T02:36:17.037Z,8.80
2018-04-14T02:38:44.494Z,8.79
2018-04-14T02:41:11.980Z,8.74
2018-04-14T02:43:39.432Z,8.84
2018-04-14T02:46:06.914Z,8.67
2018-04-14T02:48:34.358Z,8.68
2018-04-14T02:51:01.852Z,8.63
2018-04-14T02:53:30.296Z,8.60
2018-04-14T02:55:57.896Z,8.78
2018-04-14T02:58:25.352Z,8.71
2018-04-14T03:00:52.855Z,8.68
2018-04-14T03:03:20.368Z,8.67
2018-04-14T03:05:48.843Z,8.98
2018-04-14T03:08:16.328Z,9.02
2018-04-14T03:10:43.771Z,9.04
2018-04-14T03:13:12.249Z,9.07
2018-04-14T03:15:40.692Z,9.02
2018-04-14T03:18:08.173Z,8.70
2018-04-14T03:20:35.632Z,8.72
2018-04-14T03:23:03.115Z,8.80
2018-04-14T03:25:30.567Z,8.73
2018-04-14T03:27:58.059Z,8.71
2018-04-14T03:30:25.520Z,8.60
2018-04-14T03:32:53.020Z,8.28
2018-04-14T03:35:20.486Z,8.36
2018-04-14T03:37:47.970Z,8.46
2018-04-14T03:40:16.385Z,8.52
2018-04-14T03:42:43.880Z,8.33
2018-04-14T03:45:11.340Z,8.05
2018-04-14T03:47:38.830Z,8.17
2018-04-14T03:50:06.289Z,8.13
2018-04-14T03:52:34.735Z,8.33
2018-04-14T03:55:02.208Z,8.50
2018-04-14T03:57:29.668Z,8.57
2018-04-14T03:59:57.163Z,8.27
2018-04-14T04:02:25.548Z,8.47
2018-04-14T04:04:53.135Z,8.37
2018-04-14T04:07:20.689Z,8.32
2018-04-14T04:09:48.176Z,8.33
2018-04-14T04:12:15.631Z,8.23
2018-04-14T04:14:43.139Z,8.36
2018-04-14T04:17:10.600Z,8.33
2018-04-14T04:19:51.064Z,8.25
2018-04-14T04:22:30.396Z,7.98
2018-04-14T04:28:09.905Z,8.15
2018-04-14T04:30:37.387Z,8.19
2018-04-14T04:33:04.846Z,8.13
2018-04-14T04:35:32.338Z,8.08
2018-04-14T04:37:59.803Z,8.04
2018-04-14T04:40:27.291Z,8.10
2018-04-14T04:42:54.750Z,8.11
2018-04-14T04:45:22.287Z,8.09
2018-04-14T04:47:49.837Z,8.62
2018-04-14T04:50:17.328Z,8.99
2018-04-14T04:52:44.773Z,8.62
2018-04-14T04:55:13.158Z,8.60
2018-04-14T04:57:40.617Z,8.71
2018-04-14T05:00:08.146Z,8.80
2018-04-14T05:02:35.598Z,8.91
2018-04-14T05:05:03.048Z,8.90
2018-04-14T05:07:30.524Z,8.87
2018-04-14T05:09:58.035Z,8.67
2018-04-14T05:12:25.521Z,8.48
2018-04-14T05:14:52.975Z,8.16
2018-04-14T05:17:20.463Z,8.55
2018-04-14T05:19:47.923Z,8.92
2018-04-14T05:22:15.410Z,8.83
2018-04-14T05:24:43.811Z,8.93
2018-04-14T05:27:11.396Z,8.96
2018-04-14T05:29:38.850Z,9.09
2018-04-14T05:32:06.332Z,8.93
2018-04-14T05:34:33.787Z,8.55
2018-04-14T05:37:01.281Z,8.56
2018-04-14T05:39:28.748Z,8.67
2018-04-14T05:41:56.207Z,8.66
2018-04-14T05:44:23.767Z,8.66
2018-04-14T05:46:51.257Z,8.97
2018-04-14T05:49:19.734Z,8.77
2018-04-14T05:51:47.184Z,8.70
2018-04-14T05:54:14.679Z,8.70
2018-04-14T05:56:42.208Z,8.71
2018-04-14T05:59:09.689Z,8.79
2018-04-14T06:01:37.147Z,8.83
2018-04-14T06:04:04.625Z,8.87
2018-04-14T06:06:32.080Z,8.59
2018-04-14T06:08:59.621Z,8.66
2018-04-14T06:11:27.027Z,8.87
2018-04-14T06:13:54.511Z,8.60
2018-04-14T06:16:21.963Z,8.92
2018-04-14T06:18:49.469Z,8.83
2018-04-14T06:21:16.916Z,8.99
2018-04-14T06:23:44.451Z,9.23
2018-04-14T06:26:11.947Z,9.15
2018-04-14T06:28:39.453Z,9.07
2018-04-14T06:31:06.940Z,8.99
2018-04-14T06:33:34.396Z,9.14
2018-04-14T06:36:01.882Z,9.08
2018-04-14T06:38:29.484Z,9.04
2018-04-14T06:40:56.971Z,9.25
2018-04-14T06:43:24.504Z,9.30
2018-04-14T06:45:51.998Z,9.46
2018-04-14T06:48:19.439Z,9.28
2018-04-14T06:50:46.967Z,9.05
2018-04-14T06:53:14.626Z,9.03
2018-04-14T06:55:42.107Z,9.10
2018-04-14T06:58:09.638Z,9.22
2018-04-14T07:00:37.123Z,9.27
2018-04-14T07:03:04.574Z,8.96
2018-04-14T07:05:32.054Z,9.05
2018-04-14T07:07:59.510Z,9.28
2018-04-14T07:10:27.002Z,9.10
2018-04-14T07:12:54.482Z,9.23
2018-04-14T07:15:22.964Z,9.19
2018-04-14T07:17:50.443Z,9.16
2018-04-14T07:20:17.901Z,9.37
2018-04-14T07:22:45.379Z,9.40
2018-04-14T07:25:12.916Z,9.77
2018-04-14T07:27:40.407Z,10.00
2018-04-14T07:30:07.858Z,9.91
2018-04-14T07:32:35.380Z,9.71
2018-04-14T07:35:02.838Z,9.45
2018-04-14T07:37:30.357Z,9.07
2018-04-14T07:39:57.788Z,9.43
2018-04-14T07:42:25.271Z,9.09
2018-04-14T07:44:52.731Z,9.69
2018-04-14T07:47:20.231Z,9.24
2018-04-14T07:49:47.692Z,9.16
2018-04-14T07:52:15.192Z,9.02
2018-04-14T07:54:42.691Z,9.09
2018-04-14T07:57:10.175Z,8.95
2018-04-14T07:59:37.639Z,9.08
2018-04-14T08:02:05.115Z,8.69
2018-04-14T08:04:32.609Z,9.08
2018-04-14T08:07:00.075Z,9.29
2018-04-14T08:09:27.562Z,9.03
2018-04-14T08:11:55.019Z,9.45
2018-04-14T08:14:22.516Z,9.42
2018-04-14T08:16:49.985Z,9.59
2018-04-14T08:19:17.463Z,9.19
2018-04-14T08:21:44.919Z,9.16
2018-04-14T08:24:12.415Z,9.64
2018-04-14T08:26:39.867Z,9.42
2018-04-14T08:29:07.348Z,9.11
2018-04-14T08:31:34.806Z,8.91
2018-04-14T08:34:02.300Z,9.09
2018-04-14T08:36:29.756Z,9.16
2018-04-14T08:38:57.248Z,9.43
2018-04-14T08:41:24.712Z,9.40
2018-04-14T08:43:52.204Z,9.23
2018-04-14T08:46:19.663Z,9.57
2018-04-14T08:48:47.123Z,9.37
2018-04-14T08:51:14.612Z,9.13
2018-04-14T08:53:42.063Z,9.01
2018-04-14T08:56:09.544Z,9.12
2018-04-14T08:58:37.043Z,9.05
2018-04-14T09:01:04.525Z,9.38
2018-04-14T09:03:31.981Z,9.34
2018-04-14T09:05:59.465Z,9.06
2018-04-14T09:08:26.925Z,8.87
2018-04-14T09:10:54.408Z,8.88
2018-04-14T09:13:21.873Z,8.94
2018-04-14T09:15:52.104Z,9.15
2018-04-14T09:18:19.560Z,9.15
2018-04-14T09:20:47.063Z,9.09
2018-04-14T09:23:14.523Z,9.05
2018-04-14T09:25:42.047Z,9.37
2018-04-14T09:28:09.528Z,9.58
2018-04-14T09:30:36.986Z,9.61
2018-04-14T09:33:04.511Z,9.33
2018-04-14T09:35:31.963Z,9.98
2018-04-14T09:37:59.491Z,9.66
2018-04-14T09:40:26.943Z,9.82
2018-04-14T09:42:54.569Z,9.82
2018-04-14T09:45:21.985Z,9.33
2018-04-14T09:47:49.472Z,9.40
2018-04-14T09:50:16.932Z,9.52
2018-04-14T09:52:44.438Z,9.50
2018-04-14T09:55:11.903Z,9.27
2018-04-14T09:57:41.280Z,9.36
2018-04-14T10:00:08.776Z,9.40
2018-04-14T10:02:42.110Z,9.49
2018-04-14T10:05:09.583Z,9.28
2018-04-14T10:07:37.086Z,9.46
2018-04-14T10:10:04.613Z,9.36
2018-04-14T10:12:32.140Z,9.41
2018-04-14T10:14:59.664Z,9.61
2018-04-14T10:17:27.123Z,9.68
2018-04-14T10:19:54.627Z,9.88
2018-04-14T10:22:22.080Z,9.53
2018-04-14T10:24:49.564Z,9.38
2018-04-14T10:27:17.016Z,9.32
2018-04-14T10:29:45.496Z,9.57
2018-04-14T10:32:12.949Z,9.46
2018-04-14T10:34:40.451Z,9.31
2018-04-14T10:37:09.922Z,9.18
2018-04-14T10:39:37.481Z,9.14
2018-04-14T10:42:04.972Z,9.13
2018-04-14T10:44:32.456Z,9.32
2018-04-14T10:47:00.927Z,9.25
2018-04-14T10:49:28.671Z,9.37
2018-04-14T10:51:59.526Z,9.45
2018-04-14T10:54:26.999Z,9.44
2018-04-14T10:56:55.512Z,9.23
2018-04-14T10:59:26.429Z,9.36
2018-04-14T11:01:53.935Z,9.55
2018-04-14T11:04:21.396Z,9.49
2018-04-14T11:06:49.841Z,9.60
2018-04-14T11:09:17.292Z,9.50
2018-04-14T11:11:44.796Z,9.40
2018-04-14T11:14:12.270Z,9.16
2018-04-14T11:16:39.772Z,9.35
2018-04-14T11:19:08.196Z,9.26
2018-04-14T11:21:35.683Z,9.19
2018-04-14T11:24:05.051Z,9.35
2018-04-14T11:26:32.640Z,9.28
2018-04-14T11:29:04.592Z,9.47
2018-04-14T11:31:33.070Z,9.07
2018-04-14T11:34:00.581Z,9.11
2018-04-14T11:36:28.092Z,8.97
2018-04-14T11:38:55.552Z,9.21
2018-04-14T11:41:23.071Z,9.15
2018-04-14T11:43:51.478Z,8.93
2018-04-14T11:46:19.085Z,9.05
2018-04-14T11:48:46.564Z,9.27
2018-04-14T11:51:14.101Z,9.24
2018-04-14T11:53:41.580Z,9.04
2018-04-14T11:56:09.179Z,9.18
2018-04-14T11:58:39.069Z,9.11
2018-04-14T12:01:06.535Z,8.83
2018-04-14T12:03:34.036Z,8.73
2018-04-14T12:06:04.653Z,8.74
2018-04-14T12:08:32.429Z,8.74
2018-04-14T12:10:59.914Z,8.73
2018-04-14T12:13:27.411Z,8.83
2018-04-14T12:15:54.907Z,8.99
2018-04-14T12:18:22.443Z,8.81
2018-04-14T12:20:50.981Z,8.65
2018-04-14T12:23:18.487Z,8.61
2018-04-14T12:25:45.963Z,8.64
2018-04-14T12:28:15.464Z,8.59
2018-04-14T12:30:42.936Z,8.56
2018-04-14T12:33:10.472Z,8.62
2018-04-14T12:35:38.815Z,8.80
2018-04-14T12:38:07.423Z,8.75
2018-04-14T12:40:43.011Z,8.58
2018-04-14T12:43:10.492Z,8.58
2018-04-14T12:45:39.901Z,8.80
2018-04-14T12:48:07.387Z,8.86
2018-04-14T12:50:34.874Z,8.62
2018-04-14T12:53:02.319Z,8.34
2018-04-14T12:55:29.801Z,8.70
2018-04-14T12:57:58.302Z,8.52
2018-04-14T13:00:25.747Z,8.46
2018-04-14T13:02:53.220Z,8.48
2018-04-14T13:05:20.719Z,8.49
2018-04-14T13:07:48.200Z,8.51
2018-04-14T13:10:15.773Z,8.40
2018-04-14T13:12:43.257Z,8.61
2018-04-14T13:15:10.747Z,8.57
2018-04-14T13:17:40.171Z,8.46
2018-04-14T13:20:07.687Z,8.27
2018-04-14T13:22:35.168Z,8.45
2018-04-14T13:25:02.659Z,8.47
2018-04-14T13:27:30.187Z,8.45
2018-04-14T13:29:57.676Z,8.51
2018-04-14T13:32:29.678Z,8.48
2018-04-14T13:34:58.053Z,8.48
2018-04-14T13:37:25.556Z,8.42
2018-04-14T13:39:53.008Z,8.60
2018-04-14T13:42:20.508Z,8.74
2018-04-14T13:44:47.969Z,8.79
2018-04-14T13:47:16.439Z,8.60
2018-04-14T13:49:43.925Z,8.52
2018-04-14T13:52:14.643Z,8.40
2018-04-14T13:54:42.141Z,8.58
2018-04-14T13:57:09.680Z,8.63
2018-04-14T13:59:37.143Z,8.59
2018-04-14T14:02:04.644Z,8.93
2018-04-14T14:04:32.109Z,8.83
2018-04-14T14:06:59.614Z,8.75
2018-04-14T14:09:27.071Z,8.78
2018-04-14T14:11:54.604Z,8.76
2018-04-14T14:14:22.082Z,8.55
2018-04-14T14:16:49.575Z,8.67
2018-04-14T14:19:20.414Z,8.72
2018-04-14T14:21:48.926Z,8.52
2018-04-14T14:24:16.575Z,8.52
2018-04-14T14:26:44.035Z,8.70
2018-04-14T14:29:11.585Z,8.66
2018-04-14T14:31:39.047Z,8.57
2018-04-14T14:34:06.608Z,8.68
2018-04-14T14:36:34.076Z,8.51
2018-04-14T14:39:01.564Z,8.55
2018-04-14T14:41:29.068Z,8.68
2018-04-14T14:43:56.585Z,8.67
2018-04-14T14:46:24.091Z,8.62
2018-04-14T14:48:51.584Z,8.52
2018-04-14T14:51:19.043Z,8.57
2018-04-14T14:53:46.575Z,8.56
2018-04-14T14:56:14.088Z,8.49
2018-04-14T14:58:42.510Z,8.61
2018-04-14T15:01:09.973Z,8.44
2018-04-14T15:03:37.512Z,8.44
2018-04-14T15:06:06.893Z,8.43
2018-04-14T15:08:34.367Z,8.52
2018-04-14T15:11:02.899Z,8.45
2018-04-14T15:13:30.360Z,8.33
2018-04-14T15:15:57.851Z,8.46
2018-04-14T15:18:25.316Z,8.34
2018-04-14T15:20:52.840Z,8.32
2018-04-14T15:23:20.349Z,8.34
2018-04-14T15:25:47.887Z,8.11
2018-04-14T15:28:15.374Z,8.33
2018-04-14T15:30:42.860Z,8.44
2018-04-14T15:33:10.319Z,8.23
2018-04-14T15:35:37.819Z,8.32
2018-04-14T15:38:05.279Z,8.43
2018-04-14T15:40:32.808Z,8.32
2018-04-14T15:43:00.298Z,8.49
2018-04-14T15:45:27.868Z,8.42
2018-04-14T15:47:55.375Z,8.33
2018-04-14T15:50:22.848Z,8.43
2018-04-14T15:52:50.335Z,8.48
2018-04-14T15:55:17.820Z,8.53
2018-04-14T15:57:45.311Z,8.55
2018-04-14T16:00:12.772Z,8.34
2018-04-14T16:02:40.332Z,8.36
2018-04-14T16:05:07.804Z,8.39
2018-04-14T16:07:35.291Z,8.25
2018-04-14T16:10:02.833Z,8.31
2018-04-14T16:12:30.332Z,8.33
2018-04-14T16:14:57.785Z,8.32
2018-04-14T16:17:25.275Z,8.39
2018-04-14T16:19:52.747Z,8.39
2018-04-14T16:22:20.195Z,8.21
2018-04-14T16:24:47.688Z,8.31
2018-04-14T16:27:15.139Z,8.33
2018-04-14T16:29:42.626Z,8.16
2018-04-14T16:32:10.087Z,8.40
2018-04-14T16:34:37.612Z,8.48
2018-04-14T16:37:05.066Z,8.28
2018-04-14T16:39:32.552Z,8.38
2018-04-14T16:42:00.003Z,8.54
2018-04-14T16:44:27.539Z,8.44
2018-04-14T16:46:54.999Z,8.30
2018-04-14T16:49:22.546Z,8.35
2018-04-14T16:51:49.984Z,8.48
2018-04-14T16:54:17.472Z,8.48
2018-04-14T16:56:44.929Z,8.44
2018-04-14T16:59:12.428Z,8.58
2018-04-14T17:01:39.900Z,8.58
2018-04-14T17:04:07.399Z,8.49
2018-04-14T17:06:34.888Z,8.50
2018-04-14T17:09:02.392Z,8.51
2018-04-14T17:11:29.851Z,8.39
2018-04-14T17:13:57.439Z,8.33
2018-04-14T17:16:24.995Z,8.49
2018-04-14T17:18:52.601Z,8.35
2018-04-14T17:21:20.064Z,8.34
2018-04-14T17:23:47.541Z,8.34
2018-04-14T17:26:15.032Z,8.46
2018-04-14T17:28:42.540Z,8.48
2018-04-14T17:31:10.030Z,8.50
2018-04-14T17:33:37.494Z,8.65
2018-04-14T17:36:04.991Z,8.48
2018-04-14T17:38:32.454Z,8.62
2018-04-14T17:40:59.972Z,8.61
2018-04-14T17:43:27.440Z,8.66
2018-04-14T17:45:54.934Z,8.68
2018-04-14T17:48:22.392Z,8.76
2018-04-14T17:50:49.872Z,8.67
2018-04-14T17:53:17.331Z,8.57
2018-04-14T17:55:44.819Z,8.60
2018-04-14T17:58:12.380Z,8.60
2018-04-14T18:00:39.872Z,8.69
2018-04-14T18:03:07.331Z,8.71
2018-04-14T18:05:34.781Z,8.62
2018-04-14T18:08:02.316Z,8.53
2018-04-14T18:10:29.783Z,8.79
2018-04-14T18:12:57.421Z,8.61
2018-04-14T18:15:24.884Z,8.70
2018-04-14T18:17:52.375Z,8.79
2018-04-14T18:20:19.831Z,8.79
2018-04-14T18:22:47.328Z,8.78
2018-04-14T18:25:14.802Z,8.76
2018-04-14T18:27:42.371Z,8.77
2018-04-14T18:30:09.822Z,8.67
2018-04-14T18:32:37.355Z,8.61
2018-04-14T18:35:05.732Z,8.68
2018-04-14T18:37:33.223Z,8.64
2018-04-14T18:42:51.120Z,8.58
2018-04-14T18:45:18.576Z,8.70
2018-04-14T18:47:46.071Z,8.60
2018-04-14T18:50:13.544Z,8.81
2018-04-14T18:55:14.938Z,8.67
2018-04-14T18:57:44.128Z,8.73
2018-04-14T19:00:11.634Z,8.75
2018-04-14T19:05:32.267Z,8.77
2018-04-14T19:08:00.752Z,8.78
2018-04-14T19:10:28.456Z,8.80
2018-04-14T19:12:55.900Z,8.79
2018-04-14T19:15:25.953Z,8.89
